AirNav   Bose Proflight and A20 aviation headeets
 
 988 users online  

6K2 Shelby County Airport
Shelbyville, Missouri, USA

GOING TO SHELBYVILLE?


FAA INFORMATION EFFECTIVE 31 JANUARY 2019

Location

FAA Identifier: 6K2
Lat/Long: 39-48-45.2400N / 092-03-00.7800W
39-48.754000N / 092-03.013000W
39.8125667 / -92.0502167
(estimated)
Elevation: 760 ft. / 232 m (estimated)
Variation: 03E (1985)
From city: 1 mile NW of SHELBYVILLE, MO
Time zone: UTC -6 (UTC -5 during Daylight Saving Time)
Zip code: 63469

Airport Operations

Airport use: Open to the public
Activation date: 11/1957
Control tower: no
ARTCC: KANSAS CITY CENTER
FSS: COLUMBIA FLIGHT SERVICE STATION
NOTAMs facility: COU (NOTAM-D service available)
Attendance: UNATNDD
Wind indicator: yes
Segmented circle: no

Airport Communications

CTAF: 122.9

Nearby radio navigation aids

VOR radial/distance  VOR name  Freq  Var
MCMr058/22.1MACON VOR/DME112.9006E
IRKr122/31.5KIRKSVILLE VORTAC114.6006E
UINr262/35.6QUINCY VORTAC113.6005E

Airport Services

Parking: tiedowns
Airframe service: NONE
Powerplant service: NONE
Bottled oxygen: NONE
Bulk oxygen: NONE

Runway Information

Runway 17/35

Dimensions: 2300 x 46 ft. / 701 x 14 m
Surface: turf, in good condition
Runway edge markings: RWY 35 HAS 5 FT NRS AT THLD
Gradient: 1.3% UP N.
RUNWAY 17  RUNWAY 35
Latitude: 39-48.942833N39-48.565333N
Longitude: 092-03.033167W092-02.992833W
Elevation: 760.0 ft.730.0 ft.
Gradient: 1.3% UP
Traffic pattern: leftleft
Markings: , in fair condition
Obstructions: 4 ft. fence, marked, 80 ft. from runway, 20:1 slope to clear55 ft. tree, 1038 ft. from runway, 127 ft. right of centerline, 18:1 slope to clear

Airport Ownership and Management from official FAA records

Ownership: Publicly-owned
Owner: CITY OF SHELBYVILLE
106 S WASHINGTON, P.O. BOX 90
SHELBYVILLE, MO 63469
Phone 573-633-2520
Manager: GINA MESMER
106 S WASHINGTON BOX 90
SHELBYVILLE, MO 63469
Phone 573-633-2520
CTC PERSON; CITY CLERK.

Airport Operational Statistics

Aircraft operations: 127/year *
51% local general aviation
47% transient general aviation
2% military
* for 12-month period ending 31 December 2015

Additional Remarks

RADIO CONTROLLED MODEL AIRPLANES ON AND INVOF ARPT AND HEAVY CONCENTRATION OF LARGE WATER FOWL ON & INVOF ARPT.
NTSD RWY SAFETY AREA BEYOND EACH RWY END; RY 17 HAS FENCE 80 FT FM THLD; RY 35 HAS LARGE DROP OFF AND LAKE.

Instrument Procedures

There are no published instrument procedures at 6K2.

Some nearby airports with instrument procedures:

K52 - Cpt Ben Smith Airfield - Monroe City (18 nm SE)
K89 - Macon-Fower Memorial Airport (19 nm W)
6M6 - Lewis County Regional Airport (26 nm NE)
KMBY - Omar N Bradley Airport (27 nm SW)
KIRK - Kirksville Regional Airport (28 nm NW)
 
Loc | Ops | Rwys | IFR | FBO | Links
Com | Nav | Svcs | Stats | Notes

Kansas City Aviation Department
 
Area around 6K2 (Shelby County Airport)
 
Road maps at: MapQuest Bing Google
 
Aerial photo
No photo
 
Sectional chart

 
Airport distance calculator
Flying to Shelby County Airport? Find the distance to fly.

From to 6K2

Sunrise and sunset
Times for 19-Feb-2019
 Local
(UTC-6)
 Zulu
(UTC)
Morning civil twilight06:2912:29
Sunrise06:5712:57
Sunset17:4823:48
Evening civil twilight18:1500:15

Current date and time
Zulu (UTC)  20-Feb-2019 02:21:28
Local (UTC-6)  19-Feb-2019 20:21:28
 
METAR
KMBY 
27nm SW 
200155Z AUTO 08015KT 10SM BKN070 OVC080 00/M05 A3020 RMK AO2
KHAE 
28nm E 
200155Z AUTO 07009KT 10SM SCT018 SCT070 BKN090 00/M04 A3025 RMK AO2
KIRK 
29nm NW 
200155Z AUTO 07016G24KT 10SM OVC085 M02/M03 A3021 RMK AO2 SLP248 T10171033
KUIN 
40nm E 
200154Z AUTO 07013KT 8SM BKN018 OVC080 M01/M04 A3026 RMK AO2 SLP257 T10061044
KMYJ 
41nm S 
200155Z AUTO 07011G15KT 10SM OVC080 M01/M03 A3021 RMK AO2
KEOK 
49nm NE 
200155Z AUTO 07008G14KT 10SM FEW050 OVC060 M01/M03 A3029 RMK AO2
TAF
KUIN 
40nm E 
200012Z 2000/2024 08011KT P6SM VCSH OVC020 FM200200 09012KT 1 1/2SM -SN OVC015 FM200700 09013KT 1 1/2SM -FZRASN BR OVC015 FM200900 09012KT 1 1/2SM -FZRA BR OVC007 FM201200 11010KT 3SM -FZDZ BR OVC007 FM201400 14008KT 3SM -DZ BR OVC007 FM201700 19010KT P6SM OVC007 FM202300 24012KT P6SM BKN020
NOTAMs
Click for the latest NOTAMs
NOTAMs are issued by the DoD/FAA and will open in a separate window not controlled by AirNav.

 

 
 

Would you like to see your business listed on this page?

 If your business provides an interesting product or service to pilots, flight crews, aircraft, or users of the Shelby County Airport, you should consider listing it here.  To start the listing process, click on the button below
 
Add a business
 

Other Pages about Shelby County Airport

Update a link
 
Copyright © AirNav, LLC. All rights reserved. Privacy Policy  Contact